sensor_id;sensor_type;location;lat;lon;timestamp;temperature;humidity
3256;DHT22;1640;48.504;9.224;2023-03-23T00:02:30;13.00;69.80
3256;DHT22;1640;48.504;9.224;2023-03-23T00:05:02;13.00;69.50
3256;DHT22;1640;48.504;9.224;2023-03-23T00:07:29;13.00;69.30
3256;DHT22;1640;48.504;9.224;2023-03-23T00:09:58;13.00;69.60
3256;DHT22;1640;48.504;9.224;2023-03-23T00:12:29;13.00;69.20
3256;DHT22;1640;48.504;9.224;2023-03-23T00:14:59;13.10;69.20
3256;DHT22;1640;48.504;9.224;2023-03-23T00:17:28;13.10;69.20
3256;DHT22;1640;48.504;9.224;2023-03-23T00:19:59;13.10;68.50
3256;DHT22;1640;48.504;9.224;2023-03-23T00:22:28;13.20;68.90
3256;DHT22;1640;48.504;9.224;2023-03-23T00:24:55;13.20;68.30
3256;DHT22;1640;48.504;9.224;2023-03-23T00:27:23;13.20;67.90
3256;DHT22;1640;48.504;9.224;2023-03-23T00:29:52;13.20;68.00
3256;DHT22;1640;48.504;9.224;2023-03-23T00:32:21;13.30;67.30
3256;DHT22;1640;48.504;9.224;2023-03-23T00:34:56;13.30;67.60
3256;DHT22;1640;48.504;9.224;2023-03-23T00:37:24;13.30;67.30
3256;DHT22;1640;48.504;9.224;2023-03-23T00:39:52;13.30;67.00
3256;DHT22;1640;48.504;9.224;2023-03-23T00:42:23;13.40;66.60
3256;DHT22;1640;48.504;9.224;2023-03-23T00:44:51;13.40;66.30
3256;DHT22;1640;48.504;9.224;2023-03-23T00:47:25;13.50;65.90
3256;DHT22;1640;48.504;9.224;2023-03-23T00:49:53;13.50;64.90
3256;DHT22;1640;48.504;9.224;2023-03-23T00:52:23;13.60;64.70
3256;DHT22;1640;48.504;9.224;2023-03-23T00:54:51;13.60;64.30
3256;DHT22;1640;48.504;9.224;2023-03-23T00:57:19;13.70;64.00
3256;DHT22;1640;48.504;9.224;2023-03-23T00:59:50;13.70;64.20
3256;DHT22;1640;48.504;9.224;2023-03-23T01:02:17;13.70;64.20
3256;DHT22;1640;48.504;9.224;2023-03-23T01:04:45;13.70;64.20
3256;DHT22;1640;48.504;9.224;2023-03-23T01:07:18;13.70;64.70
3256;DHT22;1640;48.504;9.224;2023-03-23T01:09:47;13.70;65.20
3256;DHT22;1640;48.504;9.224;2023-03-23T01:12:15;13.60;65.90
3256;DHT22;1640;48.504;9.224;2023-03-23T01:14:42;13.50;66.30
3256;DHT22;1640;48.504;9.224;2023-03-23T01:17:10;13.60;66.30
3256;DHT22;1640;48.504;9.224;2023-03-23T01:19:38;13.50;66.20
3256;DHT22;1640;48.504;9.224;2023-03-23T01:22:06;13.50;66.50
3256;DHT22;1640;48.504;9.224;2023-03-23T01:24:35;13.50;66.60
3256;DHT22;1640;48.504;9.224;2023-03-23T01:27:04;13.50;66.50
3256;DHT22;1640;48.504;9.224;2023-03-23T01:29:33;13.50;66.50
3256;DHT22;1640;48.504;9.224;2023-03-23T01:32:01;13.50;65.60
3256;DHT22;1640;48.504;9.224;2023-03-23T01:34:28;13.50;65.60
3256;DHT22;1640;48.504;9.224;2023-03-23T01:36:57;13.50;66.00
3256;DHT22;1640;48.504;9.224;2023-03-23T01:39:24;13.50;65.50
3256;DHT22;1640;48.504;9.224;2023-03-23T01:41:52;13.40;66.30
3256;DHT22;1640;48.504;9.224;2023-03-23T01:47:26;13.40;67.50
3256;DHT22;1640;48.504;9.224;2023-03-23T01:49:53;13.30;68.00
3256;DHT22;1640;48.504;9.224;2023-03-23T01:52:23;13.30;68.00
3256;DHT22;1640;48.504;9.224;2023-03-23T01:54:52;13.30;68.30
3256;DHT22;1640;48.504;9.224;2023-03-23T01:57:24;13.20;68.80
3256;DHT22;1640;48.504;9.224;2023-03-23T01:59:54;13.30;68.90
3256;DHT22;1640;48.504;9.224;2023-03-23T02:02:26;13.30;68.90
3256;DHT22;1640;48.504;9.224;2023-03-23T02:04:59;13.30;69.00
3256;DHT22;1640;48.504;9.224;2023-03-23T02:07:28;13.20;68.90
3256;DHT22;1640;48.504;9.224;2023-03-23T02:09:56;13.30;68.30
3256;DHT22;1640;48.504;9.224;2023-03-23T02:12:23;13.30;68.50
3256;DHT22;1640;48.504;9.224;2023-03-23T02:14:51;13.50;66.90
3256;DHT22;1640;48.504;9.224;2023-03-23T02:17:23;13.40;66.50
3256;DHT22;1640;48.504;9.224;2023-03-23T02:20:13;13.50;66.30
3256;DHT22;1640;48.504;9.224;2023-03-23T02:23:01;13.50;66.30
3256;DHT22;1640;48.504;9.224;2023-03-23T02:26:09;13.50;66.30
3256;DHT22;1640;48.504;9.224;2023-03-23T02:28:56;13.50;66.30
3256;DHT22;1640;48.504;9.224;2023-03-23T02:31:51;13.60;66.60
3256;DHT22;1640;48.504;9.224;2023-03-23T02:34:27;13.60;66.20
3256;DHT22;1640;48.504;9.224;2023-03-23T02:36:59;13.80;65.90
3256;DHT22;1640;48.504;9.224;2023-03-23T02:39:32;14.00;65.50
3256;DHT22;1640;48.504;9.224;2023-03-23T02:42:04;14.10;65.00
3256;DHT22;1640;48.504;9.224;2023-03-23T02:44:34;14.20;64.50
3256;DHT22;1640;48.504;9.224;2023-03-23T02:47:04;14.30;64.20
3256;DHT22;1640;48.504;9.224;2023-03-23T02:49:36;14.40;64.00
3256;DHT22;1640;48.504;9.224;2023-03-23T02:52:10;14.60;63.90
3256;DHT22;1640;48.504;9.224;2023-03-23T02:54:42;14.70;63.20
3256;DHT22;1640;48.504;9.224;2023-03-23T02:57:10;14.80;63.20
3256;DHT22;1640;48.504;9.224;2023-03-23T02:59:39;14.80;62.70
3256;DHT22;1640;48.504;9.224;2023-03-23T03:02:10;14.90;63.00
3256;DHT22;1640;48.504;9.224;2023-03-23T03:04:42;15.00;62.40
3256;DHT22;1640;48.504;9.224;2023-03-23T03:07:30;15.00;62.20
3256;DHT22;1640;48.504;9.224;2023-03-23T03:10:06;15.10;62.00
3256;DHT22;1640;48.504;9.224;2023-03-23T03:12:42;15.10;62.00
3256;DHT22;1640;48.504;9.224;2023-03-23T03:15:21;15.10;61.60
3256;DHT22;1640;48.504;9.224;2023-03-23T03:17:55;15.10;61.70
3256;DHT22;1640;48.504;9.224;2023-03-23T03:20:27;15.10;62.20
3256;DHT22;1640;48.504;9.224;2023-03-23T03:22:56;15.00;61.60
3256;DHT22;1640;48.504;9.224;2023-03-23T03:25:25;14.90;61.70
3256;DHT22;1640;48.504;9.224;2023-03-23T03:27:55;14.90;61.90
3256;DHT22;1640;48.504;9.224;2023-03-23T03:30:27;14.80;62.20
3256;DHT22;1640;48.504;9.224;2023-03-23T03:32:57;14.70;62.40
3256;DHT22;1640;48.504;9.224;2023-03-23T03:35:27;14.60;62.70
3256;DHT22;1640;48.504;9.224;2023-03-23T03:37:55;14.50;63.00
3256;DHT22;1640;48.504;9.224;2023-03-23T03:40:24;14.40;62.70
3256;DHT22;1640;48.504;9.224;2023-03-23T03:42:51;14.50;62.70
3256;DHT22;1640;48.504;9.224;2023-03-23T03:45:19;14.50;62.90
3256;DHT22;1640;48.504;9.224;2023-03-23T03:47:47;14.40;62.90
3256;DHT22;1640;48.504;9.224;2023-03-23T03:50:15;14.40;63.00
3256;DHT22;1640;48.504;9.224;2023-03-23T03:52:44;14.40;62.90
3256;DHT22;1640;48.504;9.224;2023-03-23T03:55:11;14.40;63.00
3256;DHT22;1640;48.504;9.224;2023-03-23T03:57:39;14.40;63.00
3256;DHT22;1640;48.504;9.224;2023-03-23T04:00:08;14.50;62.70
3256;DHT22;1640;48.504;9.224;2023-03-23T04:02:42;14.40;62.90
3256;DHT22;1640;48.504;9.224;2023-03-23T04:05:10;14.40;63.00
3256;DHT22;1640;48.504;9.224;2023-03-23T04:07:38;14.30;63.30
3256;DHT22;1640;48.504;9.224;2023-03-23T04:10:09;14.30;63.40
3256;DHT22;1640;48.504;9.224;2023-03-23T04:12:37;14.30;63.40
3256;DHT22;1640;48.504;9.224;2023-03-23T04:15:05;14.30;63.60
3256;DHT22;1640;48.504;9.224;2023-03-23T04:17:33;14.30;63.60
3256;DHT22;1640;48.504;9.224;2023-03-23T04:20:02;14.20;63.40
3256;DHT22;1640;48.504;9.224;2023-03-23T04:22:33;14.20;63.70
3256;DHT22;1640;48.504;9.224;2023-03-23T04:25:01;14.20;63.40
3256;DHT22;1640;48.504;9.224;2023-03-23T04:27:33;14.10;63.90
3256;DHT22;1640;48.504;9.224;2023-03-23T04:30:02;14.10;63.70
3256;DHT22;1640;48.504;9.224;2023-03-23T04:32:31;14.10;63.70
3256;DHT22;1640;48.504;9.224;2023-03-23T04:34:58;14.10;63.90
3256;DHT22;1640;48.504;9.224;2023-03-23T04:37:27;14.00;64.00
3256;DHT22;1640;48.504;9.224;2023-03-23T04:39:55;14.00;64.20
3256;DHT22;1640;48.504;9.224;2023-03-23T04:42:28;13.90;64.50
3256;DHT22;1640;48.504;9.224;2023-03-23T04:44:57;13.90;64.70
3256;DHT22;1640;48.504;9.224;2023-03-23T04:47:26;13.90;64.90
3256;DHT22;1640;48.504;9.224;2023-03-23T04:49:55;13.90;64.90
3256;DHT22;1640;48.504;9.224;2023-03-23T04:52:24;13.90;64.90
3256;DHT22;1640;48.504;9.224;2023-03-23T04:54:52;13.90;65.00
3256;DHT22;1640;48.504;9.224;2023-03-23T04:57:19;14.00;65.00
3256;DHT22;1640;48.504;9.224;2023-03-23T04:59:47;14.00;64.90
3256;DHT22;1640;48.504;9.224;2023-03-23T05:02:16;14.10;64.50
3256;DHT22;1640;48.504;9.224;2023-03-23T05:04:45;14.10;64.50
3256;DHT22;1640;48.504;9.224;2023-03-23T05:07:12;14.10;64.50
3256;DHT22;1640;48.504;9.224;2023-03-23T05:09:40;14.10;64.30
3256;DHT22;1640;48.504;9.224;2023-03-23T05:12:09;14.20;63.90
3256;DHT22;1640;48.504;9.224;2023-03-23T05:14:40;14.20;64.30
3256;DHT22;1640;48.504;9.224;2023-03-23T05:17:08;14.10;64.20
3256;DHT22;1640;48.504;9.224;2023-03-23T05:19:37;14.10;64.30
3256;DHT22;1640;48.504;9.224;2023-03-23T05:22:07;14.10;64.60
3256;DHT22;1640;48.504;9.224;2023-03-23T05:24:35;14.20;64.00
3256;DHT22;1640;48.504;9.224;2023-03-23T05:27:03;14.20;63.90
3256;DHT22;1640;48.504;9.224;2023-03-23T05:29:30;14.20;63.90
3256;DHT22;1640;48.504;9.224;2023-03-23T05:31:58;14.20;63.90
3256;DHT22;1640;48.504;9.224;2023-03-23T05:34:26;14.30;63.60
3256;DHT22;1640;48.504;9.224;2023-03-23T05:36:56;14.30;63.70
3256;DHT22;1640;48.504;9.224;2023-03-23T05:39:24;14.20;63.70
3256;DHT22;1640;48.504;9.224;2023-03-23T05:41:52;14.30;63.40
3256;DHT22;1640;48.504;9.224;2023-03-23T05:44:20;14.20;63.40
3256;DHT22;1640;48.504;9.224;2023-03-23T05:46:48;14.30;63.20
3256;DHT22;1640;48.504;9.224;2023-03-23T05:49:16;14.30;63.00
3256;DHT22;1640;48.504;9.224;2023-03-23T05:51:44;14.40;62.90
3256;DHT22;1640;48.504;9.224;2023-03-23T05:54:14;14.40;62.90
3256;DHT22;1640;48.504;9.224;2023-03-23T05:56:42;14.30;62.90
3256;DHT22;1640;48.504;9.224;2023-03-23T05:59:09;14.40;62.70
3256;DHT22;1640;48.504;9.224;2023-03-23T06:01:38;14.50;62.60
3256;DHT22;1640;48.504;9.224;2023-03-23T06:04:06;14.50;62.30
3256;DHT22;1640;48.504;9.224;2023-03-23T06:06:35;14.50;63.20
3256;DHT22;1640;48.504;9.224;2023-03-23T06:09:02;14.60;61.90
3256;DHT22;1640;48.504;9.224;2023-03-23T06:11:31;14.70;62.40
3256;DHT22;1640;48.504;9.224;2023-03-23T06:13:59;14.60;62.30
3256;DHT22;1640;48.504;9.224;2023-03-23T06:16:27;14.70;62.40
3256;DHT22;1640;48.504;9.224;2023-03-23T06:18:54;14.70;62.70
3256;DHT22;1640;48.504;9.224;2023-03-23T06:21:23;14.70;62.60
3256;DHT22;1640;48.504;9.224;2023-03-23T06:23:50;14.70;62.90
3256;DHT22;1640;48.504;9.224;2023-03-23T06:26:20;14.80;62.90
3256;DHT22;1640;48.504;9.224;2023-03-23T06:28:48;14.80;62.70
3256;DHT22;1640;48.504;9.224;2023-03-23T06:31:16;14.80;63.20
3256;DHT22;1640;48.504;9.224;2023-03-23T06:33:46;14.90;62.60
3256;DHT22;1640;48.504;9.224;2023-03-23T06:36:14;15.00;62.60
3256;DHT22;1640;48.504;9.224;2023-03-23T06:38:42;15.00;62.40
3256;DHT22;1640;48.504;9.224;2023-03-23T06:41:11;15.00;62.40
3256;DHT22;1640;48.504;9.224;2023-03-23T06:43:38;15.20;62.70
3256;DHT22;1640;48.504;9.224;2023-03-23T06:46:07;15.30;61.90
3256;DHT22;1640;48.504;9.224;2023-03-23T06:48:35;15.40;61.60
3256;DHT22;1640;48.504;9.224;2023-03-23T06:51:05;15.20;61.70
3256;DHT22;1640;48.504;9.224;2023-03-23T06:53:32;15.30;61.70
3256;DHT22;1640;48.504;9.224;2023-03-23T06:56:00;15.30;61.90
3256;DHT22;1640;48.504;9.224;2023-03-23T06:58:27;15.30;61.90
3256;DHT22;1640;48.504;9.224;2023-03-23T07:00:56;15.30;62.00
3256;DHT22;1640;48.504;9.224;2023-03-23T07:03:26;15.40;61.70
3256;DHT22;1640;48.504;9.224;2023-03-23T07:05:53;15.50;61.00
3256;DHT22;1640;48.504;9.224;2023-03-23T07:08:21;15.50;60.60
3256;DHT22;1640;48.504;9.224;2023-03-23T07:10:51;15.70;60.30
3256;DHT22;1640;48.504;9.224;2023-03-23T07:13:19;15.80;60.00
3256;DHT22;1640;48.504;9.224;2023-03-23T07:15:47;15.80;59.60
3256;DHT22;1640;48.504;9.224;2023-03-23T07:18:16;15.80;59.60
3256;DHT22;1640;48.504;9.224;2023-03-23T07:20:48;15.90;59.20
3256;DHT22;1640;48.504;9.224;2023-03-23T07:23:16;15.90;58.20
3256;DHT22;1640;48.504;9.224;2023-03-23T07:25:44;16.00;58.10
3256;DHT22;1640;48.504;9.224;2023-03-23T07:28:12;16.10;58.00
3256;DHT22;1640;48.504;9.224;2023-03-23T07:30:39;16.10;57.70
3256;DHT22;1640;48.504;9.224;2023-03-23T07:33:08;16.20;57.30
3256;DHT22;1640;48.504;9.224;2023-03-23T07:35:36;16.30;57.30
3256;DHT22;1640;48.504;9.224;2023-03-23T07:38:06;16.20;57.40
3256;DHT22;1640;48.504;9.224;2023-03-23T07:40:34;16.30;57.10
3256;DHT22;1640;48.504;9.224;2023-03-23T07:43:03;16.20;58.00
3256;DHT22;1640;48.504;9.224;2023-03-23T07:45:31;16.20;57.80
3256;DHT22;1640;48.504;9.224;2023-03-23T07:47:59;16.20;58.20
3256;DHT22;1640;48.504;9.224;2023-03-23T07:50:27;16.10;58.50
3256;DHT22;1640;48.504;9.224;2023-03-23T07:52:56;16.10;58.80
3256;DHT22;1640;48.504;9.224;2023-03-23T07:55:25;16.00;59.50
3256;DHT22;1640;48.504;9.224;2023-03-23T07:57:54;16.10;59.20
3256;DHT22;1640;48.504;9.224;2023-03-23T08:00:22;16.20;59.00
3256;DHT22;1640;48.504;9.224;2023-03-23T08:02:53;16.20;59.50
3256;DHT22;1640;48.504;9.224;2023-03-23T08:05:22;16.30;59.00
3256;DHT22;1640;48.504;9.224;2023-03-23T08:07:53;16.50;58.80
3256;DHT22;1640;48.504;9.224;2023-03-23T08:10:22;16.60;59.20
3256;DHT22;1640;48.504;9.224;2023-03-23T08:12:53;16.70;58.80
3256;DHT22;1640;48.504;9.224;2023-03-23T08:15:22;16.90;58.60
3256;DHT22;1640;48.504;9.224;2023-03-23T08:17:50;17.00;58.60
3256;DHT22;1640;48.504;9.224;2023-03-23T08:20:19;17.00;58.10
3256;DHT22;1640;48.504;9.224;2023-03-23T08:22:52;17.10;57.70
3256;DHT22;1640;48.504;9.224;2023-03-23T08:25:21;17.00;58.00
3256;DHT22;1640;48.504;9.224;2023-03-23T08:27:51;17.00;57.80
3256;DHT22;1640;48.504;9.224;2023-03-23T08:30:20;17.00;58.50
3256;DHT22;1640;48.504;9.224;2023-03-23T08:32:49;16.90;59.00
3256;DHT22;1640;48.504;9.224;2023-03-23T08:35:17;16.90;58.90
3256;DHT22;1640;48.504;9.224;2023-03-23T08:37:45;17.00;59.20
3256;DHT22;1640;48.504;9.224;2023-03-23T08:40:18;16.90;59.70
3256;DHT22;1640;48.504;9.224;2023-03-23T08:42:47;17.00;60.40
3256;DHT22;1640;48.504;9.224;2023-03-23T08:45:17;17.10;59.70
3256;DHT22;1640;48.504;9.224;2023-03-23T08:47:46;17.00;59.60
3256;DHT22;1640;48.504;9.224;2023-03-23T08:50:16;16.90;60.30
3256;DHT22;1640;48.504;9.224;2023-03-23T08:52:44;17.00;60.90
3256;DHT22;1640;48.504;9.224;2023-03-23T08:55:11;16.80;61.40
3256;DHT22;1640;48.504;9.224;2023-03-23T08:57:41;16.80;62.00
3256;DHT22;1640;48.504;9.224;2023-03-23T09:00:12;16.80;62.60
3256;DHT22;1640;48.504;9.224;2023-03-23T09:02:45;16.80;62.60
3256;DHT22;1640;48.504;9.224;2023-03-23T09:05:14;16.70;62.40
3256;DHT22;1640;48.504;9.224;2023-03-23T09:07:43;16.50;64.00
3256;DHT22;1640;48.504;9.224;2023-03-23T09:10:12;16.60;64.50
3256;DHT22;1640;48.504;9.224;2023-03-23T09:12:40;16.50;64.50
3256;DHT22;1640;48.504;9.224;2023-03-23T09:15:09;16.60;65.20
3256;DHT22;1640;48.504;9.224;2023-03-23T09:17:41;16.70;64.90
3256;DHT22;1640;48.504;9.224;2023-03-23T09:20:12;16.90;63.70
3256;DHT22;1640;48.504;9.224;2023-03-23T09:22:41;16.80;64.30
3256;DHT22;1640;48.504;9.224;2023-03-23T09:25:11;16.80;64.30
3256;DHT22;1640;48.504;9.224;2023-03-23T09:27:40;16.70;65.00
3256;DHT22;1640;48.504;9.224;2023-03-23T09:30:10;16.70;65.70
3256;DHT22;1640;48.504;9.224;2023-03-23T09:32:39;16.80;65.30
3256;DHT22;1640;48.504;9.224;2023-03-23T09:35:10;16.80;65.30
3256;DHT22;1640;48.504;9.224;2023-03-23T09:37:39;16.80;65.70
3256;DHT22;1640;48.504;9.224;2023-03-23T09:40:12;17.00;64.70
3256;DHT22;1640;48.504;9.224;2023-03-23T09:42:52;17.10;65.20
3256;DHT22;1640;48.504;9.224;2023-03-23T09:45:27;17.10;66.50
3256;DHT22;1640;48.504;9.224;2023-03-23T09:48:16;17.10;65.90
3256;DHT22;1640;48.504;9.224;2023-03-23T09:50:50;16.90;66.20
3256;DHT22;1640;48.504;9.224;2023-03-23T09:53:24;16.60;66.70
3256;DHT22;1640;48.504;9.224;2023-03-23T09:55:54;16.50;68.50
3256;DHT22;1640;48.504;9.224;2023-03-23T09:58:27;16.50;69.20
3256;DHT22;1640;48.504;9.224;2023-03-23T10:00:59;16.60;68.30
3256;DHT22;1640;48.504;9.224;2023-03-23T10:03:34;17.00;67.30
3256;DHT22;1640;48.504;9.224;2023-03-23T10:06:06;17.30;65.00
3256;DHT22;1640;48.504;9.224;2023-03-23T10:08:35;17.60;63.40
3256;DHT22;1640;48.504;9.224;2023-03-23T10:11:09;17.70;63.20
3256;DHT22;1640;48.504;9.224;2023-03-23T10:14:03;17.80;62.90
3256;DHT22;1640;48.504;9.224;2023-03-23T10:16:45;18.00;61.40
3256;DHT22;1640;48.504;9.224;2023-03-23T10:19:20;18.00;60.00
3256;DHT22;1640;48.504;9.224;2023-03-23T10:21:56;17.70;61.10
3256;DHT22;1640;48.504;9.224;2023-03-23T10:24:30;17.60;61.30
3256;DHT22;1640;48.504;9.224;2023-03-23T10:27:06;17.70;61.90
3256;DHT22;1640;48.504;9.224;2023-03-23T10:29:40;18.00;60.90
3256;DHT22;1640;48.504;9.224;2023-03-23T10:32:12;18.20;60.30
3256;DHT22;1640;48.504;9.224;2023-03-23T10:34:44;18.20;59.20
3256;DHT22;1640;48.504;9.224;2023-03-23T10:37:18;18.00;59.60
3256;DHT22;1640;48.504;9.224;2023-03-23T10:39:49;17.90;60.30
3256;DHT22;1640;48.504;9.224;2023-03-23T10:42:25;17.90;59.90
3256;DHT22;1640;48.504;9.224;2023-03-23T10:44:54;17.90;61.90
3256;DHT22;1640;48.504;9.224;2023-03-23T10:47:22;17.80;61.30
3256;DHT22;1640;48.504;9.224;2023-03-23T10:49:53;17.70;63.90
3256;DHT22;1640;48.504;9.224;2023-03-23T10:52:29;17.50;64.30
3256;DHT22;1640;48.504;9.224;2023-03-23T10:55:02;17.20;67.60
3256;DHT22;1640;48.504;9.224;2023-03-23T10:57:32;17.20;69.50
3256;DHT22;1640;48.504;9.224;2023-03-23T11:00:05;17.20;68.50
3256;DHT22;1640;48.504;9.224;2023-03-23T11:02:40;17.40;69.00
3256;DHT22;1640;48.504;9.224;2023-03-23T11:05:17;17.50;67.20
3256;DHT22;1640;48.504;9.224;2023-03-23T11:07:52;17.60;68.00
3256;DHT22;1640;48.504;9.224;2023-03-23T11:10:23;17.90;66.00
3256;DHT22;1640;48.504;9.224;2023-03-23T11:12:52;18.20;65.60
3256;DHT22;1640;48.504;9.224;2023-03-23T11:15:27;18.30;62.60
3256;DHT22;1640;48.504;9.224;2023-03-23T11:17:57;18.30;62.20
3256;DHT22;1640;48.504;9.224;2023-03-23T11:20:26;18.30;62.00
3256;DHT22;1640;48.504;9.224;2023-03-23T11:22:56;18.30;61.00
3256;DHT22;1640;48.504;9.224;2023-03-23T11:25:24;18.20;62.20
3256;DHT22;1640;48.504;9.224;2023-03-23T11:27:52;18.30;60.90
3256;DHT22;1640;48.504;9.224;2023-03-23T11:30:24;18.30;60.40
3256;DHT22;1640;48.504;9.224;2023-03-23T11:32:54;18.30;60.30
3256;DHT22;1640;48.504;9.224;2023-03-23T11:35:27;18.30;60.40
3256;DHT22;1640;48.504;9.224;2023-03-23T11:37:58;18.40;60.30
3256;DHT22;1640;48.504;9.224;2023-03-23T11:40:27;18.40;59.30
3256;DHT22;1640;48.504;9.224;2023-03-23T11:43:00;18.60;58.90
3256;DHT22;1640;48.504;9.224;2023-03-23T11:45:36;18.70;58.90
3256;DHT22;1640;48.504;9.224;2023-03-23T11:48:15;18.60;58.20
3256;DHT22;1640;48.504;9.224;2023-03-23T11:50:50;18.70;57.00
3256;DHT22;1640;48.504;9.224;2023-03-23T11:53:30;18.60;57.50
3256;DHT22;1640;48.504;9.224;2023-03-23T11:56:15;18.70;57.30
3256;DHT22;1640;48.504;9.224;2023-03-23T11:58:44;18.80;57.10
3256;DHT22;1640;48.504;9.224;2023-03-23T12:01:19;19.10;55.90
3256;DHT22;1640;48.504;9.224;2023-03-23T12:06:59;19.20;54.80
3256;DHT22;1640;48.504;9.224;2023-03-23T12:09:43;19.10;55.90
3256;DHT22;1640;48.504;9.224;2023-03-23T12:12:18;19.30;55.80
3256;DHT22;1640;48.504;9.224;2023-03-23T12:14:53;19.10;55.50
3256;DHT22;1640;48.504;9.224;2023-03-23T12:17:31;19.10;56.70
3256;DHT22;1640;48.504;9.224;2023-03-23T12:20:16;19.40;55.20
3256;DHT22;1640;48.504;9.224;2023-03-23T12:22:55;19.50;54.20
3256;DHT22;1640;48.504;9.224;2023-03-23T12:28:34;19.60;53.70
3256;DHT22;1640;48.504;9.224;2023-03-23T12:31:11;19.40;54.00
3256;DHT22;1640;48.504;9.224;2023-03-23T12:33:49;19.50;54.80
3256;DHT22;1640;48.504;9.224;2023-03-23T12:36:28;19.60;54.00
3256;DHT22;1640;48.504;9.224;2023-03-23T12:39:10;19.40;53.50
3256;DHT22;1640;48.504;9.224;2023-03-23T12:41:45;19.20;53.90
3256;DHT22;1640;48.504;9.224;2023-03-23T12:44:16;18.90;55.10
3256;DHT22;1640;48.504;9.224;2023-03-23T12:49:55;18.70;56.50
3256;DHT22;1640;48.504;9.224;2023-03-23T12:52:26;18.50;56.70
3256;DHT22;1640;48.504;9.224;2023-03-23T12:55:00;18.50;56.20
3256;DHT22;1640;48.504;9.224;2023-03-23T12:57:34;18.40;56.50
3256;DHT22;1640;48.504;9.224;2023-03-23T13:00:08;18.30;56.70
3256;DHT22;1640;48.504;9.224;2023-03-23T13:02:42;18.20;56.60
3256;DHT22;1640;48.504;9.224;2023-03-23T13:05:26;18.40;56.20
3256;DHT22;1640;48.504;9.224;2023-03-23T13:08:05;18.50;55.80
3256;DHT22;1640;48.504;9.224;2023-03-23T13:10:39;18.60;55.90
3256;DHT22;1640;48.504;9.224;2023-03-23T13:13:13;18.70;54.80
3256;DHT22;1640;48.504;9.224;2023-03-23T13:15:49;18.80;54.30
3256;DHT22;1640;48.504;9.224;2023-03-23T13:18:28;18.80;54.30
3256;DHT22;1640;48.504;9.224;2023-03-23T13:21:09;18.90;54.20
3256;DHT22;1640;48.504;9.224;2023-03-23T13:23:41;18.80;54.40
3256;DHT22;1640;48.504;9.224;2023-03-23T13:26:12;18.90;54.60
3256;DHT22;1640;48.504;9.224;2023-03-23T13:28:55;19.20;54.40
3256;DHT22;1640;48.504;9.224;2023-03-23T13:31:26;19.30;53.20
3256;DHT22;1640;48.504;9.224;2023-03-23T13:34:05;19.30;52.70
3256;DHT22;1640;48.504;9.224;2023-03-23T13:36:36;19.40;53.30
3256;DHT22;1640;48.504;9.224;2023-03-23T13:39:06;19.40;52.30
3256;DHT22;1640;48.504;9.224;2023-03-23T13:41:46;19.40;52.90
3256;DHT22;1640;48.504;9.224;2023-03-23T13:44:18;19.40;52.80
3256;DHT22;1640;48.504;9.224;2023-03-23T13:47:08;19.20;53.20
3256;DHT22;1640;48.504;9.224;2023-03-23T13:49:46;19.20;54.20
3256;DHT22;1640;48.504;9.224;2023-03-23T13:52:23;19.30;53.60
3256;DHT22;1640;48.504;9.224;2023-03-23T13:55:08;19.30;53.20
3256;DHT22;1640;48.504;9.224;2023-03-23T13:57:50;19.20;54.20
3256;DHT22;1640;48.504;9.224;2023-03-23T14:00:49;19.20;54.30
3256;DHT22;1640;48.504;9.224;2023-03-23T14:03:23;19.30;54.30
3256;DHT22;1640;48.504;9.224;2023-03-23T14:06:01;19.20;54.00
3256;DHT22;1640;48.504;9.224;2023-03-23T14:08:42;19.20;54.40
3256;DHT22;1640;48.504;9.224;2023-03-23T14:11:15;19.10;53.70
3256;DHT22;1640;48.504;9.224;2023-03-23T14:13:47;18.90;54.30
3256;DHT22;1640;48.504;9.224;2023-03-23T14:16:20;18.90;55.20
3256;DHT22;1640;48.504;9.224;2023-03-23T14:18:52;18.80;54.40
3256;DHT22;1640;48.504;9.224;2023-03-23T14:21:32;18.70;54.00
3256;DHT22;1640;48.504;9.224;2023-03-23T14:24:02;18.60;54.20
3256;DHT22;1640;48.504;9.224;2023-03-23T14:26:33;18.60;54.00
3256;DHT22;1640;48.504;9.224;2023-03-23T14:29:03;18.50;54.60
3256;DHT22;1640;48.504;9.224;2023-03-23T14:31:32;18.60;54.60
3256;DHT22;1640;48.504;9.224;2023-03-23T14:34:04;18.60;54.00
3256;DHT22;1640;48.504;9.224;2023-03-23T14:36:34;18.50;53.10
3256;DHT22;1640;48.504;9.224;2023-03-23T14:39:04;18.40;54.20
3256;DHT22;1640;48.504;9.224;2023-03-23T14:41:35;18.40;53.90
3256;DHT22;1640;48.504;9.224;2023-03-23T14:44:06;18.40;54.20
3256;DHT22;1640;48.504;9.224;2023-03-23T14:46:36;18.40;54.40
3256;DHT22;1640;48.504;9.224;2023-03-23T14:49:05;18.50;54.00
3256;DHT22;1640;48.504;9.224;2023-03-23T14:51:33;18.40;54.20
3256;DHT22;1640;48.504;9.224;2023-03-23T14:54:01;18.30;54.60
3256;DHT22;1640;48.504;9.224;2023-03-23T14:56:34;18.30;54.60
3256;DHT22;1640;48.504;9.224;2023-03-23T14:59:04;18.20;54.60
3256;DHT22;1640;48.504;9.224;2023-03-23T15:01:37;18.20;55.00
3256;DHT22;1640;48.504;9.224;2023-03-23T15:04:08;18.10;55.40
3256;DHT22;1640;48.504;9.224;2023-03-23T15:06:39;18.00;55.50
3256;DHT22;1640;48.504;9.224;2023-03-23T15:09:11;17.90;55.90
3256;DHT22;1640;48.504;9.224;2023-03-23T15:11:40;17.90;55.60
3256;DHT22;1640;48.504;9.224;2023-03-23T15:14:14;17.80;56.60
3256;DHT22;1640;48.504;9.224;2023-03-23T15:16:47;17.90;56.30
3256;DHT22;1640;48.504;9.224;2023-03-23T15:19:18;18.10;56.30
3256;DHT22;1640;48.504;9.224;2023-03-23T15:21:49;18.00;56.30
3256;DHT22;1640;48.504;9.224;2023-03-23T15:24:25;17.90;56.10
3256;DHT22;1640;48.504;9.224;2023-03-23T15:26:54;17.80;56.30
3256;DHT22;1640;48.504;9.224;2023-03-23T15:29:29;17.70;56.50
3256;DHT22;1640;48.504;9.224;2023-03-23T15:31:58;17.60;56.70
3256;DHT22;1640;48.504;9.224;2023-03-23T15:34:31;17.60;57.00
3256;DHT22;1640;48.504;9.224;2023-03-23T15:37:02;17.60;57.30
3256;DHT22;1640;48.504;9.224;2023-03-23T15:39:30;17.50;57.40
3256;DHT22;1640;48.504;9.224;2023-03-23T15:41:59;17.60;57.40
3256;DHT22;1640;48.504;9.224;2023-03-23T15:44:29;17.50;58.00
3256;DHT22;1640;48.504;9.224;2023-03-23T15:47:14;17.60;57.70
3256;DHT22;1640;48.504;9.224;2023-03-23T15:49:45;17.50;58.00
3256;DHT22;1640;48.504;9.224;2023-03-23T15:52:14;17.40;58.40
3256;DHT22;1640;48.504;9.224;2023-03-23T15:54:48;17.40;58.40
3256;DHT22;1640;48.504;9.224;2023-03-23T15:57:16;17.30;58.50
3256;DHT22;1640;48.504;9.224;2023-03-23T15:59:44;17.30;58.80
3256;DHT22;1640;48.504;9.224;2023-03-23T16:02:20;17.30;58.80
3256;DHT22;1640;48.504;9.224;2023-03-23T16:04:48;17.20;59.00
3256;DHT22;1640;48.504;9.224;2023-03-23T16:07:17;17.20;59.60
3256;DHT22;1640;48.504;9.224;2023-03-23T16:09:46;17.20;59.60
3256;DHT22;1640;48.504;9.224;2023-03-23T16:12:13;17.20;59.50
3256;DHT22;1640;48.504;9.224;2023-03-23T16:14:41;17.10;60.30
3256;DHT22;1640;48.504;9.224;2023-03-23T16:17:10;17.10;60.40
3256;DHT22;1640;48.504;9.224;2023-03-23T16:19:40;17.10;60.30
3256;DHT22;1640;48.504;9.224;2023-03-23T16:22:08;17.10;60.60
3256;DHT22;1640;48.504;9.224;2023-03-23T16:24:36;17.20;60.10
3256;DHT22;1640;48.504;9.224;2023-03-23T16:27:04;17.20;60.10
3256;DHT22;1640;48.504;9.224;2023-03-23T16:29:31;17.30;60.10
3256;DHT22;1640;48.504;9.224;2023-03-23T16:31:59;17.30;60.30
3256;DHT22;1640;48.504;9.224;2023-03-23T16:34:26;17.40;59.90
3256;DHT22;1640;48.504;9.224;2023-03-23T16:36:59;17.30;59.90
3256;DHT22;1640;48.504;9.224;2023-03-23T16:39:27;17.20;60.30
3256;DHT22;1640;48.504;9.224;2023-03-23T16:41:54;17.10;60.70